createdAt,value
2017-10-19T00:00:11.144Z,96.90
2017-10-19T00:02:39.414Z,97.00
2017-10-19T00:05:07.708Z,97.00
2017-10-19T00:07:36.036Z,97.00
2017-10-19T00:10:03.557Z,97.00
2017-10-19T00:12:31.060Z,97.00
2017-10-19T00:14:59.351Z,97.00
2017-10-19T00:17:26.863Z,97.00
2017-10-19T00:19:54.670Z,97.00
2017-10-19T00:22:22.200Z,97.00
2017-10-19T00:24:49.758Z,97.00
2017-10-19T00:27:17.276Z,97.00
2017-10-19T00:29:45.569Z,97.30
2017-10-19T00:32:13.852Z,97.30
2017-10-19T00:34:41.357Z,97.20
2017-10-19T00:37:08.875Z,97.20
2017-10-19T00:39:36.402Z,97.30
2017-10-19T00:42:04.718Z,97.40
2017-10-19T00:44:32.242Z,97.40
2017-10-19T00:46:59.789Z,97.40
2017-10-19T00:49:27.331Z,97.40
2017-10-19T00:51:54.852Z,97.40
2017-10-19T00:54:22.386Z,97.60
2017-10-19T00:56:50.658Z,97.70
2017-10-19T00:59:18.938Z,97.60
2017-10-19T01:01:47.239Z,97.60
2017-10-19T01:04:14.769Z,97.60
2017-10-19T01:06:43.294Z,97.80
2017-10-19T01:09:10.840Z,97.70
2017-10-19T01:11:38.359Z,97.70
2017-10-19T01:14:05.935Z,97.70
2017-10-19T01:16:34.251Z,98.00
2017-10-19T01:19:01.809Z,98.00
2017-10-19T01:21:29.312Z,98.10
2017-10-19T01:23:56.859Z,98.30
2017-10-19T01:26:24.396Z,98.30
2017-10-19T01:28:51.912Z,98.40
2017-10-19T01:31:20.211Z,98.60
2017-10-19T01:33:47.748Z,98.30
2017-10-19T01:36:15.251Z,98.30
2017-10-19T01:38:42.783Z,98.20
2017-10-19T01:41:11.063Z,98.40
2017-10-19T01:43:38.570Z,98.40
2017-10-19T01:46:06.101Z,98.40
2017-10-19T01:48:33.610Z,98.50
2017-10-19T01:51:01.132Z,98.70
2017-10-19T01:53:28.663Z,98.80
2017-10-19T01:55:56.194Z,98.60
2017-10-19T01:58:23.700Z,98.60
2017-10-19T02:00:51.223Z,98.70
2017-10-19T02:03:18.739Z,98.70
2017-10-19T02:05:46.245Z,98.70
2017-10-19T02:08:14.552Z,98.60
2017-10-19T02:10:42.832Z,98.60
2017-10-19T02:13:10.370Z,98.50
2017-10-19T02:15:37.885Z,98.60
2017-10-19T02:18:05.423Z,98.50
2017-10-19T02:20:32.945Z,98.50
2017-10-19T02:23:00.470Z,98.80
2017-10-19T02:25:27.966Z,98.90
2017-10-19T02:27:56.261Z,99.00
2017-10-19T02:30:23.780Z,99.00
2017-10-19T02:32:51.294Z,98.90
2017-10-19T02:35:18.833Z,98.80
2017-10-19T02:37:46.367Z,98.70
2017-10-19T02:40:13.891Z,98.60
2017-10-19T02:42:41.468Z,98.30
2017-10-19T02:45:08.993Z,98.60
2017-10-19T02:47:36.502Z,98.60
2017-10-19T02:50:04.871Z,98.60
2017-10-19T02:52:32.383Z,98.90
2017-10-19T02:54:59.895Z,98.70
2017-10-19T02:57:28.177Z,98.60
2017-10-19T02:59:56.475Z,98.70
2017-10-19T03:02:23.996Z,98.70
2017-10-19T03:04:51.512Z,98.80
2017-10-19T03:07:19.044Z,98.80
2017-10-19T03:09:47.329Z,98.60
2017-10-19T03:12:14.838Z,98.70
2017-10-19T03:14:42.357Z,98.80
2017-10-19T03:17:09.906Z,98.90
2017-10-19T03:19:37.428Z,98.70
2017-10-19T03:22:04.958Z,98.70
2017-10-19T03:24:32.488Z,98.70
2017-10-19T03:26:59.994Z,98.90
2017-10-19T03:29:27.503Z,99.30
2017-10-19T03:31:55.037Z,99.50
2017-10-19T03:34:22.585Z,99.70
2017-10-19T03:36:49.890Z,99.90
2017-10-19T03:39:17.398Z,99.90
2017-10-19T03:41:44.926Z,99.90
2017-10-19T03:44:12.431Z,99.90
2017-10-19T03:46:39.957Z,99.90
2017-10-19T03:49:07.480Z,99.90
2017-10-19T03:51:35.003Z,99.90
2017-10-19T03:54:02.536Z,99.90
2017-10-19T03:56:30.825Z,99.90
2017-10-19T03:58:58.338Z,99.90
2017-10-19T04:01:25.865Z,99.90
2017-10-19T04:03:53.372Z,99.90
2017-10-19T04:06:20.916Z,99.90
2017-10-19T04:08:48.578Z,99.90
2017-10-19T04:11:16.103Z,99.90
2017-10-19T04:13:43.634Z,99.90
2017-10-19T04:16:11.143Z,99.90
2017-10-19T04:18:39.423Z,99.90
2017-10-19T04:21:06.947Z,99.90
2017-10-19T04:23:34.464Z,99.90
2017-10-19T04:26:01.980Z,99.90
2017-10-19T04:28:30.277Z,99.80
2017-10-19T04:30:57.812Z,99.60
2017-10-19T04:33:25.358Z,99.90
2017-10-19T04:35:52.890Z,99.90
2017-10-19T04:38:20.435Z,99.90
2017-10-19T04:40:47.946Z,99.90
2017-10-19T04:43:15.468Z,99.90
2017-10-19T04:45:42.985Z,99.90
2017-10-19T04:48:10.508Z,99.90
2017-10-19T04:50:38.035Z,99.90
2017-10-19T04:53:05.555Z,99.70
2017-10-19T04:55:33.848Z,99.90
2017-10-19T04:58:01.355Z,99.90
2017-10-19T05:00:28.877Z,99.90
2017-10-19T05:02:56.406Z,99.90
2017-10-19T05:05:23.936Z,99.90
2017-10-19T05:07:51.472Z,99.90
2017-10-19T05:10:18.980Z,99.80
2017-10-19T05:12:46.525Z,99.60
2017-10-19T05:15:14.087Z,99.70
2017-10-19T05:17:41.611Z,99.90
2017-10-19T05:20:09.633Z,99.70
2017-10-19T05:22:37.227Z,99.70
2017-10-19T05:25:06.711Z,99.80
2017-10-19T05:27:35.010Z,99.90
2017-10-19T05:30:03.363Z,99.90
2017-10-19T05:32:31.644Z,99.80
2017-10-19T05:34:59.162Z,99.80
2017-10-19T05:37:26.687Z,99.40
2017-10-19T05:39:54.206Z,99.30
2017-10-19T05:42:21.749Z,99.30
2017-10-19T05:44:49.275Z,99.60
2017-10-19T05:47:16.782Z,99.30
2017-10-19T05:49:44.319Z,99.20
2017-10-19T05:52:11.841Z,98.70
2017-10-19T05:54:39.363Z,98.60
2017-10-19T05:57:06.903Z,98.50
2017-10-19T05:59:34.435Z,98.40
2017-10-19T06:02:01.965Z,98.70
2017-10-19T06:04:30.472Z,98.10
2017-10-19T06:06:58.025Z,98.20
2017-10-19T06:09:25.544Z,97.80
2017-10-19T06:11:53.074Z,97.90
2017-10-19T06:14:20.588Z,98.30
2017-10-19T06:16:48.867Z,98.10
2017-10-19T06:19:16.512Z,98.10
2017-10-19T06:21:44.927Z,97.50
2017-10-19T06:24:12.461Z,97.50
2017-10-19T06:26:40.741Z,97.60
2017-10-19T06:29:09.006Z,97.70
2017-10-19T06:31:37.902Z,97.40
2017-10-19T06:34:06.188Z,97.10
2017-10-19T06:36:33.710Z,97.10
2017-10-19T06:39:01.262Z,96.80
2017-10-19T06:41:28.788Z,96.70
2017-10-19T06:43:56.323Z,97.10
2017-10-19T06:46:24.628Z,96.40
2017-10-19T06:48:52.152Z,96.40
2017-10-19T06:51:20.441Z,96.90
2017-10-19T06:53:48.758Z,97.00
2017-10-19T06:56:16.275Z,97.00
2017-10-19T06:58:44.591Z,97.10
2017-10-19T07:01:12.108Z,97.20
2017-10-19T07:03:40.387Z,97.40
2017-10-19T07:06:08.686Z,97.50
2017-10-19T07:08:36.206Z,97.50
2017-10-19T07:11:03.743Z,97.50
2017-10-19T07:13:31.368Z,97.60
2017-10-19T07:15:58.910Z,97.50
2017-10-19T07:18:26.555Z,97.40
2017-10-19T07:20:54.849Z,97.00
2017-10-19T07:23:23.144Z,96.70
2017-10-19T07:25:50.662Z,96.70
2017-10-19T07:28:18.181Z,96.60
2017-10-19T07:30:45.690Z,96.80
2017-10-19T07:33:14.103Z,96.60
2017-10-19T07:35:41.656Z,96.60
2017-10-19T07:38:09.174Z,96.80
2017-10-19T07:40:36.691Z,96.90
2017-10-19T07:43:04.246Z,96.90
2017-10-19T07:45:31.912Z,96.90
2017-10-19T07:47:59.424Z,96.90
2017-10-19T07:50:26.960Z,97.10
2017-10-19T07:52:54.469Z,96.90
2017-10-19T07:55:22.013Z,96.60
2017-10-19T07:57:49.550Z,96.50
2017-10-19T08:00:17.049Z,96.20
2017-10-19T08:02:44.592Z,95.60
2017-10-19T08:05:12.168Z,95.70
2017-10-19T08:07:39.704Z,95.80
2017-10-19T08:10:07.224Z,95.40
2017-10-19T08:12:34.812Z,95.70
2017-10-19T08:15:02.331Z,95.80
2017-10-19T08:17:29.853Z,95.90
2017-10-19T08:19:58.264Z,96.60
2017-10-19T08:22:25.787Z,96.60
2017-10-19T08:24:54.095Z,96.30
2017-10-19T08:27:21.620Z,96.30
2017-10-19T08:29:49.149Z,96.00
2017-10-19T08:32:17.439Z,96.10
2017-10-19T08:34:44.987Z,96.10
2017-10-19T08:37:12.718Z,96.50
2017-10-19T08:39:40.246Z,96.10
2017-10-19T08:42:08.552Z,96.50
2017-10-19T08:44:36.052Z,96.50
2017-10-19T08:47:03.567Z,96.50
2017-10-19T08:49:31.072Z,96.30
2017-10-19T08:51:59.045Z,96.00
2017-10-19T08:54:26.613Z,95.50
2017-10-19T08:56:54.123Z,95.20
2017-10-19T08:59:21.636Z,95.40
2017-10-19T09:01:49.345Z,95.60
2017-10-19T09:04:16.867Z,95.20
2017-10-19T09:06:45.187Z,95.40
2017-10-19T09:09:12.725Z,95.20
2017-10-19T09:11:40.255Z,95.00
2017-10-19T09:14:07.776Z,95.20
2017-10-19T09:16:35.307Z,95.00
2017-10-19T09:19:03.402Z,95.10
2017-10-19T09:21:30.922Z,95.10
2017-10-19T09:23:59.208Z,95.30
2017-10-19T09:26:26.993Z,95.30
2017-10-19T09:28:54.525Z,95.20
2017-10-19T09:31:22.827Z,94.90
2017-10-19T09:33:50.357Z,94.80
2017-10-19T09:36:18.637Z,94.40
2017-10-19T09:38:46.942Z,94.00
2017-10-19T09:41:14.556Z,94.00
2017-10-19T09:43:42.065Z,94.20
2017-10-19T09:46:09.575Z,94.10
2017-10-19T09:48:37.098Z,94.20
2017-10-19T09:51:04.641Z,94.20
2017-10-19T09:53:32.154Z,93.90
2017-10-19T09:55:59.677Z,94.20
2017-10-19T09:58:27.199Z,94.20
2017-10-19T10:00:54.853Z,93.80
2017-10-19T10:03:22.519Z,93.80
2017-10-19T10:05:50.049Z,94.30
2017-10-19T10:08:17.561Z,93.80
2017-10-19T10:10:45.088Z,93.90
2017-10-19T10:13:12.592Z,94.50
2017-10-19T10:15:40.117Z,94.90
2017-10-19T10:18:08.418Z,94.60
2017-10-19T10:20:35.940Z,94.60
2017-10-19T10:23:03.478Z,94.70
2017-10-19T10:25:31.099Z,95.00
2017-10-19T10:27:58.765Z,95.80
2017-10-19T10:30:26.283Z,95.80
2017-10-19T10:32:54.565Z,95.70
2017-10-19T10:35:22.856Z,95.20
2017-10-19T10:37:51.138Z,95.20
2017-10-19T10:40:18.691Z,95.20
2017-10-19T10:42:46.956Z,94.80
2017-10-19T10:45:14.573Z,94.70
2017-10-19T10:47:42.075Z,94.30
2017-10-19T10:50:09.588Z,94.10
2017-10-19T10:52:37.187Z,93.70
2017-10-19T10:55:04.824Z,93.70
2017-10-19T10:57:32.352Z,93.90
2017-10-19T10:59:59.880Z,94.50
2017-10-19T11:02:28.187Z,93.40
2017-10-19T11:04:55.954Z,93.30
2017-10-19T11:07:23.569Z,92.80
2017-10-19T11:09:51.084Z,92.10
2017-10-19T11:12:18.603Z,91.00
2017-10-19T11:14:46.902Z,86.80
2017-10-19T11:17:14.417Z,86.80
2017-10-19T11:19:41.923Z,86.00
2017-10-19T11:22:09.448Z,85.60
2017-10-19T11:24:37.723Z,85.30
2017-10-19T11:27:06.028Z,86.60
2017-10-19T11:29:33.531Z,86.00
2017-10-19T11:32:01.082Z,85.30
2017-10-19T11:34:28.621Z,82.70
2017-10-19T11:36:56.141Z,77.90
2017-10-19T11:39:23.685Z,77.80
2017-10-19T11:41:51.213Z,77.10
2017-10-19T11:44:18.742Z,75.90
2017-10-19T11:46:46.274Z,74.30
2017-10-19T11:49:13.781Z,71.80
2017-10-19T11:51:41.338Z,70.30
2017-10-19T11:54:08.856Z,69.00
2017-10-19T11:56:37.153Z,65.50
2017-10-19T11:59:05.445Z,63.90
2017-10-19T12:01:32.968Z,63.90
2017-10-19T12:04:00.487Z,61.70
2017-10-19T12:06:27.986Z,60.00
2017-10-19T12:08:55.626Z,59.20
2017-10-19T12:11:23.173Z,59.20
2017-10-19T12:13:50.720Z,60.50
2017-10-19T12:16:18.219Z,62.20
2017-10-19T12:18:45.742Z,62.90
2017-10-19T12:21:13.279Z,64.10
2017-10-19T12:23:40.837Z,63.50
2017-10-19T12:26:08.419Z,62.20
2017-10-19T12:28:35.944Z,58.10
2017-10-19T12:31:04.240Z,53.50
2017-10-19T12:33:31.780Z,53.50
2017-10-19T12:35:59.665Z,53.20
2017-10-19T12:38:27.180Z,55.40
2017-10-19T12:40:54.720Z,57.30
2017-10-19T12:43:22.253Z,58.40
2017-10-19T12:45:50.618Z,63.40
2017-10-19T12:48:18.146Z,63.40
2017-10-19T12:50:45.707Z,64.60
2017-10-19T12:53:13.991Z,67.00
2017-10-19T12:55:42.271Z,71.10
2017-10-19T12:58:10.589Z,73.50
2017-10-19T13:00:38.177Z,73.50
2017-10-19T13:03:05.712Z,76.80
2017-10-19T13:05:33.234Z,78.00
2017-10-19T13:08:00.777Z,78.50
2017-10-19T13:10:28.278Z,78.70
2017-10-19T13:12:55.798Z,80.40
2017-10-19T13:15:23.330Z,81.10
2017-10-19T13:17:50.845Z,81.60
2017-10-19T13:20:18.370Z,82.00
2017-10-19T13:22:45.897Z,81.10
2017-10-19T13:25:13.423Z,79.60
2017-10-19T13:27:40.942Z,73.40
2017-10-19T13:30:08.470Z,69.10
2017-10-19T13:32:36.004Z,64.20
2017-10-19T13:35:03.526Z,60.70
2017-10-19T13:37:31.173Z,57.90
2017-10-19T13:39:58.685Z,54.90
2017-10-19T13:42:26.535Z,56.80
2017-10-19T13:44:54.091Z,56.90
2017-10-19T13:47:22.364Z,60.60
2017-10-19T13:49:50.681Z,63.60
2017-10-19T13:52:18.243Z,63.40
2017-10-19T13:54:45.752Z,66.10
2017-10-19T13:57:14.064Z,70.40
2017-10-19T13:59:41.616Z,70.40
2017-10-19T14:02:09.155Z,72.10
2017-10-19T14:04:37.447Z,74.90
2017-10-19T14:07:05.814Z,77.50
2017-10-19T14:09:33.466Z,77.50
2017-10-19T14:12:01.078Z,78.40
2017-10-19T14:14:28.622Z,79.50
2017-10-19T14:16:56.138Z,80.10
2017-10-19T14:19:23.667Z,80.50
2017-10-19T14:21:51.189Z,82.30
2017-10-19T14:24:18.746Z,84.30
2017-10-19T14:26:46.261Z,86.70
2017-10-19T14:29:13.787Z,88.30
2017-10-19T14:31:41.331Z,88.20
2017-10-19T14:34:09.639Z,89.20
2017-10-19T14:36:37.250Z,89.20
2017-10-19T14:39:04.769Z,89.50
2017-10-19T14:41:32.284Z,89.60
2017-10-19T14:43:59.815Z,89.60
2017-10-19T14:46:27.385Z,90.00
2017-10-19T14:48:54.909Z,90.00
2017-10-19T14:51:22.423Z,90.40
2017-10-19T14:53:50.251Z,92.00
2017-10-19T14:56:17.442Z,92.00
2017-10-19T14:58:45.296Z,93.30
2017-10-19T15:01:12.383Z,93.30
2017-10-19T15:03:39.647Z,93.90
2017-10-19T15:06:06.723Z,94.40
2017-10-19T15:08:33.776Z,94.60
2017-10-19T15:11:00.861Z,95.10
2017-10-19T15:13:28.712Z,95.50
2017-10-19T15:15:56.651Z,95.50
2017-10-19T15:18:23.751Z,95.70
2017-10-19T15:20:51.020Z,95.80
2017-10-19T15:23:18.171Z,96.00
2017-10-19T15:25:45.297Z,96.30
2017-10-19T15:28:13.311Z,97.30
2017-10-19T15:30:40.443Z,97.30
2017-10-19T15:33:09.406Z,97.80
2017-10-19T15:35:37.282Z,98.60
2017-10-19T15:38:05.117Z,98.90
2017-10-19T15:40:32.306Z,98.90
2017-10-19T15:42:59.396Z,99.20
2017-10-19T15:45:26.488Z,99.60
2017-10-19T15:47:54.339Z,99.80
2017-10-19T15:50:21.441Z,99.60
2017-10-19T15:52:48.497Z,99.40
2017-10-19T15:55:15.555Z,99.50
2017-10-19T15:57:42.722Z,99.50
2017-10-19T16:00:09.820Z,99.50
2017-10-19T16:02:36.884Z,99.60
2017-10-19T16:05:04.015Z,99.70
2017-10-19T16:07:31.852Z,99.90
2017-10-19T16:09:58.959Z,99.90
2017-10-19T16:12:26.068Z,99.80
2017-10-19T16:14:53.917Z,99.70
2017-10-19T16:17:20.997Z,99.80
2017-10-19T16:19:48.120Z,99.90
2017-10-19T16:22:15.297Z,99.90
2017-10-19T16:24:43.189Z,99.90
2017-10-19T16:27:10.259Z,99.90
2017-10-19T16:29:37.346Z,99.90
2017-10-19T16:32:04.639Z,99.90
2017-10-19T16:34:31.697Z,99.90
2017-10-19T16:36:58.751Z,99.90
2017-10-19T16:39:25.933Z,99.90
2017-10-19T16:41:53.074Z,99.90
2017-10-19T16:44:20.147Z,99.90
2017-10-19T16:46:47.982Z,99.90
2017-10-19T16:49:15.049Z,99.90
2017-10-19T16:51:42.107Z,99.90
2017-10-19T16:54:10.258Z,99.90
2017-10-19T16:56:37.350Z,99.90
2017-10-19T16:59:04.479Z,99.90
2017-10-19T17:01:31.571Z,99.90
2017-10-19T17:03:58.629Z,99.90
2017-10-19T17:06:25.866Z,99.90
2017-10-19T17:08:53.012Z,99.90
2017-10-19T17:11:20.077Z,99.90
2017-10-19T17:13:47.148Z,99.90
2017-10-19T17:16:14.254Z,99.90
2017-10-19T17:18:41.345Z,99.90
2017-10-19T17:21:08.419Z,99.90
2017-10-19T17:23:35.478Z,99.90
2017-10-19T17:26:03.329Z,99.90
2017-10-19T17:28:30.443Z,99.90
2017-10-19T17:30:57.512Z,99.90
2017-10-19T17:33:24.617Z,99.90
2017-10-19T17:35:51.909Z,99.90
2017-10-19T17:38:18.987Z,99.90
2017-10-19T17:40:46.122Z,99.90
2017-10-19T17:43:13.200Z,99.90
2017-10-19T17:45:41.072Z,99.90
2017-10-19T17:48:08.926Z,99.90
2017-10-19T17:50:36.777Z,99.90
2017-10-19T17:53:07.128Z,99.90
2017-10-19T17:55:34.956Z,99.90
2017-10-19T17:58:02.110Z,99.90
2017-10-19T18:00:29.178Z,99.90
2017-10-19T18:02:56.620Z,99.90
2017-10-19T18:05:23.723Z,99.90
2017-10-19T18:07:50.842Z,99.90
2017-10-19T18:10:18.006Z,99.90
2017-10-19T18:12:45.115Z,99.90
2017-10-19T18:15:12.311Z,99.90
2017-10-19T18:17:39.405Z,99.90
2017-10-19T18:20:07.839Z,99.90
2017-10-19T18:22:34.944Z,99.90
2017-10-19T18:25:02.037Z,99.90
2017-10-19T18:27:30.004Z,99.90
2017-10-19T18:29:57.053Z,99.90
2017-10-19T18:32:25.072Z,99.90
2017-10-19T18:34:52.136Z,99.90
2017-10-19T18:37:19.208Z,99.90
2017-10-19T18:39:46.253Z,99.90
2017-10-19T18:42:13.328Z,99.90
2017-10-19T18:44:40.462Z,99.90
2017-10-19T18:47:08.355Z,99.90
2017-10-19T18:49:35.441Z,99.90
2017-10-19T18:52:02.508Z,99.90
2017-10-19T18:54:29.591Z,99.90
2017-10-19T18:56:56.646Z,99.90
2017-10-19T18:59:23.723Z,99.90
2017-10-19T19:01:50.820Z,99.90
2017-10-19T19:04:17.879Z,99.90
2017-10-19T19:06:45.821Z,99.90
2017-10-19T19:09:12.973Z,99.90
2017-10-19T19:11:40.085Z,99.90
2017-10-19T19:14:07.204Z,99.90
2017-10-19T19:16:34.387Z,99.90
2017-10-19T19:19:01.618Z,99.90
2017-10-19T19:21:28.805Z,99.90
2017-10-19T19:23:55.940Z,99.90
2017-10-19T19:26:23.142Z,99.90
2017-10-19T19:28:50.200Z,99.90
2017-10-19T19:31:17.311Z,99.90
2017-10-19T19:33:44.404Z,99.90
2017-10-19T19:36:12.377Z,99.90
2017-10-19T19:38:40.278Z,99.90
2017-10-19T19:41:07.349Z,99.90
2017-10-19T19:43:34.641Z,99.90
2017-10-19T19:46:02.578Z,99.90
2017-10-19T19:48:29.646Z,99.90
2017-10-19T19:50:56.743Z,99.90
2017-10-19T19:53:23.800Z,99.90
2017-10-19T19:55:50.906Z,99.90
2017-10-19T19:58:18.728Z,99.90
2017-10-19T20:00:45.850Z,99.90
2017-10-19T20:03:14.053Z,99.90
2017-10-19T20:05:41.127Z,99.90
2017-10-19T20:08:08.184Z,99.90
2017-10-19T20:10:35.274Z,99.90
2017-10-19T20:13:02.351Z,99.90
2017-10-19T20:15:29.410Z,99.90
2017-10-19T20:17:56.627Z,99.90
2017-10-19T20:20:23.672Z,99.90
2017-10-19T20:22:50.923Z,99.90
2017-10-19T20:25:18.068Z,99.90
2017-10-19T20:27:45.118Z,99.90
2017-10-19T20:30:12.397Z,99.90
2017-10-19T20:32:39.492Z,99.90
2017-10-19T20:35:06.544Z,99.90
2017-10-19T20:37:33.656Z,99.90
2017-10-19T20:40:00.817Z,99.90
2017-10-19T20:42:27.907Z,99.90
2017-10-19T20:44:54.971Z,99.90
2017-10-19T20:47:22.225Z,99.90
2017-10-19T20:49:49.300Z,99.90
2017-10-19T20:52:16.414Z,99.90
2017-10-19T20:54:43.530Z,99.90
2017-10-19T20:57:10.638Z,99.90
2017-10-19T20:59:37.725Z,99.90
2017-10-19T21:02:05.288Z,99.90
2017-10-19T21:04:32.461Z,99.90
2017-10-19T21:06:59.544Z,99.90
2017-10-19T21:09:26.787Z,99.90
2017-10-19T21:11:53.844Z,99.90
2017-10-19T21:14:21.003Z,99.90
2017-10-19T21:16:48.175Z,99.90
2017-10-19T21:19:15.266Z,99.90
2017-10-19T21:21:42.418Z,99.90
2017-10-19T21:24:09.606Z,99.90
2017-10-19T21:26:36.779Z,99.90
2017-10-19T21:29:03.869Z,99.90
2017-10-19T21:31:30.996Z,99.90
2017-10-19T21:33:58.928Z,99.90
2017-10-19T21:36:25.972Z,99.90
2017-10-19T21:38:53.851Z,99.90
2017-10-19T21:41:20.928Z,99.90
2017-10-19T21:43:48.013Z,99.90
2017-10-19T21:46:15.088Z,99.90
2017-10-19T21:48:42.172Z,99.90
2017-10-19T21:51:09.217Z,99.90
2017-10-19T21:53:36.281Z,99.90
2017-10-19T21:56:04.137Z,99.90
2017-10-19T21:58:31.192Z,99.90
2017-10-19T22:00:58.255Z,99.90
2017-10-19T22:03:25.324Z,99.90
2017-10-19T22:05:52.365Z,99.90
2017-10-19T22:08:19.444Z,99.90
2017-10-19T22:10:46.516Z,99.90
2017-10-19T22:13:13.580Z,99.90
2017-10-19T22:15:40.635Z,99.90
2017-10-19T22:18:07.700Z,99.90
2017-10-19T22:20:34.775Z,99.90
2017-10-19T22:23:01.850Z,99.90
2017-10-19T22:25:28.926Z,99.90
2017-10-19T22:27:56.017Z,99.90
2017-10-19T22:30:23.084Z,99.90
2017-10-19T22:32:50.148Z,99.90
2017-10-19T22:35:17.217Z,99.90
2017-10-19T22:37:44.285Z,99.90
2017-10-19T22:40:11.340Z,99.90
2017-10-19T22:42:38.409Z,99.90
2017-10-19T22:45:05.458Z,99.90
2017-10-19T22:47:32.517Z,99.90
2017-10-19T22:49:59.614Z,99.90
2017-10-19T22:52:26.662Z,99.90
2017-10-19T22:54:53.777Z,99.90
2017-10-19T22:57:20.872Z,99.90
2017-10-19T22:59:48.703Z,99.90
2017-10-19T23:02:15.765Z,99.90
2017-10-19T23:04:42.859Z,99.90
2017-10-19T23:07:09.931Z,99.90
2017-10-19T23:09:37.006Z,99.90
2017-10-19T23:12:04.059Z,99.90
2017-10-19T23:14:31.134Z,99.90
2017-10-19T23:16:58.959Z,99.90
2017-10-19T23:19:26.020Z,99.90
2017-10-19T23:21:53.114Z,99.90
2017-10-19T23:24:20.196Z,99.90
2017-10-19T23:26:47.257Z,99.90
2017-10-19T23:29:14.328Z,99.90
2017-10-19T23:31:41.373Z,99.90
2017-10-19T23:34:08.441Z,99.90
2017-10-19T23:36:35.524Z,99.90
2017-10-19T23:39:02.600Z,99.90
2017-10-19T23:41:29.665Z,99.90
2017-10-19T23:43:56.731Z,99.90
2017-10-19T23:46:24.563Z,99.90
2017-10-19T23:48:51.636Z,99.90
2017-10-19T23:51:19.465Z,99.90
2017-10-19T23:53:46.519Z,99.90
2017-10-19T23:56:13.586Z,99.90
2017-10-19T23:58:40.652Z,99.90
